sensor_id;sensor_type;location;lat;lon;timestamp;P1;durP1;ratioP1;P2;durP2;ratioP2
20890;SDS011;10605;52.968;8.844;2024-03-08T00:00:07;40.55;;;23.45;;
20890;SDS011;10605;52.968;8.844;2024-03-08T00:02:38;44.65;;;24.48;;
20890;SDS011;10605;52.968;8.844;2024-03-08T00:05:04;49.65;;;25.63;;
20890;SDS011;10605;52.968;8.844;2024-03-08T00:07:31;39.30;;;24.40;;
20890;SDS011;10605;52.968;8.844;2024-03-08T00:09:57;45.50;;;25.08;;
20890;SDS011;10605;52.968;8.844;2024-03-08T00:12:23;48.28;;;26.35;;
20890;SDS011;10605;52.968;8.844;2024-03-08T00:14:51;43.45;;;24.70;;
20890;SDS011;10605;52.968;8.844;2024-03-08T00:17:18;55.65;;;26.17;;
20890;SDS011;10605;52.968;8.844;2024-03-08T00:19:43;45.65;;;24.60;;
20890;SDS011;10605;52.968;8.844;2024-03-08T00:22:09;44.33;;;24.63;;
20890;SDS011;10605;52.968;8.844;2024-03-08T00:24:36;41.63;;;24.38;;
20890;SDS011;10605;52.968;8.844;2024-03-08T00:27:02;43.35;;;24.90;;
20890;SDS011;10605;52.968;8.844;2024-03-08T00:29:29;41.58;;;25.08;;
20890;SDS011;10605;52.968;8.844;2024-03-08T00:31:55;43.53;;;24.63;;
20890;SDS011;10605;52.968;8.844;2024-03-08T00:34:21;45.30;;;25.88;;
20890;SDS011;10605;52.968;8.844;2024-03-08T00:36:46;39.30;;;24.73;;
20890;SDS011;10605;52.968;8.844;2024-03-08T00:39:12;45.75;;;24.58;;
20890;SDS011;10605;52.968;8.844;2024-03-08T00:41:38;46.15;;;25.20;;
20890;SDS011;10605;52.968;8.844;2024-03-08T00:44:04;43.67;;;26.13;;
20890;SDS011;10605;52.968;8.844;2024-03-08T00:46:29;40.40;;;25.23;;
20890;SDS011;10605;52.968;8.844;2024-03-08T00:48:56;42.30;;;25.67;;
20890;SDS011;10605;52.968;8.844;2024-03-08T00:51:22;40.75;;;23.73;;
20890;SDS011;10605;52.968;8.844;2024-03-08T00:53:47;45.17;;;25.17;;
20890;SDS011;10605;52.968;8.844;2024-03-08T00:56:13;43.78;;;25.08;;
20890;SDS011;10605;52.968;8.844;2024-03-08T00:58:39;43.40;;;25.67;;
20890;SDS011;10605;52.968;8.844;2024-03-08T01:01:05;44.42;;;26.00;;
20890;SDS011;10605;52.968;8.844;2024-03-08T01:03:31;47.40;;;24.67;;
20890;SDS011;10605;52.968;8.844;2024-03-08T01:05:57;42.38;;;25.02;;
20890;SDS011;10605;52.968;8.844;2024-03-08T01:08:26;43.92;;;24.05;;
20890;SDS011;10605;52.968;8.844;2024-03-08T01:10:52;43.65;;;25.33;;
20890;SDS011;10605;52.968;8.844;2024-03-08T01:13:18;40.15;;;25.05;;
20890;SDS011;10605;52.968;8.844;2024-03-08T01:15:44;44.58;;;24.73;;
20890;SDS011;10605;52.968;8.844;2024-03-08T01:18:10;43.00;;;23.90;;
20890;SDS011;10605;52.968;8.844;2024-03-08T01:20:36;45.75;;;23.63;;
20890;SDS011;10605;52.968;8.844;2024-03-08T01:23:02;43.67;;;25.45;;
20890;SDS011;10605;52.968;8.844;2024-03-08T01:25:32;42.40;;;24.08;;
20890;SDS011;10605;52.968;8.844;2024-03-08T01:27:58;40.22;;;25.25;;
20890;SDS011;10605;52.968;8.844;2024-03-08T01:30:24;38.65;;;24.35;;
20890;SDS011;10605;52.968;8.844;2024-03-08T01:32:49;38.35;;;25.05;;
20890;SDS011;10605;52.968;8.844;2024-03-08T01:35:15;43.88;;;25.48;;
20890;SDS011;10605;52.968;8.844;2024-03-08T01:37:41;43.28;;;24.45;;
20890;SDS011;10605;52.968;8.844;2024-03-08T01:40:07;44.30;;;25.42;;
20890;SDS011;10605;52.968;8.844;2024-03-08T01:42:34;42.92;;;24.83;;
20890;SDS011;10605;52.968;8.844;2024-03-08T01:45:03;44.92;;;25.58;;
20890;SDS011;10605;52.968;8.844;2024-03-08T01:47:30;42.20;;;23.85;;
20890;SDS011;10605;52.968;8.844;2024-03-08T01:49:57;44.03;;;24.50;;
20890;SDS011;10605;52.968;8.844;2024-03-08T01:52:26;44.92;;;24.38;;
20890;SDS011;10605;52.968;8.844;2024-03-08T01:54:53;46.50;;;25.13;;
20890;SDS011;10605;52.968;8.844;2024-03-08T01:57:20;46.95;;;25.35;;
20890;SDS011;10605;52.968;8.844;2024-03-08T01:59:46;42.80;;;23.77;;
20890;SDS011;10605;52.968;8.844;2024-03-08T02:02:11;46.58;;;25.13;;
20890;SDS011;10605;52.968;8.844;2024-03-08T02:04:42;45.35;;;25.10;;
20890;SDS011;10605;52.968;8.844;2024-03-08T02:07:07;41.75;;;23.17;;
20890;SDS011;10605;52.968;8.844;2024-03-08T02:09:33;41.45;;;24.23;;
20890;SDS011;10605;52.968;8.844;2024-03-08T02:11:59;44.20;;;24.45;;
20890;SDS011;10605;52.968;8.844;2024-03-08T02:14:25;42.00;;;24.98;;
20890;SDS011;10605;52.968;8.844;2024-03-08T02:16:50;51.42;;;25.75;;
20890;SDS011;10605;52.968;8.844;2024-03-08T02:19:16;45.85;;;25.02;;
20890;SDS011;10605;52.968;8.844;2024-03-08T02:21:42;42.30;;;25.65;;
20890;SDS011;10605;52.968;8.844;2024-03-08T02:24:08;41.00;;;24.17;;
20890;SDS011;10605;52.968;8.844;2024-03-08T02:26:35;43.85;;;24.88;;
20890;SDS011;10605;52.968;8.844;2024-03-08T02:29:01;46.83;;;27.50;;
20890;SDS011;10605;52.968;8.844;2024-03-08T02:31:27;47.47;;;25.52;;
20890;SDS011;10605;52.968;8.844;2024-03-08T02:33:52;45.13;;;25.42;;
20890;SDS011;10605;52.968;8.844;2024-03-08T02:36:19;41.75;;;24.75;;
20890;SDS011;10605;52.968;8.844;2024-03-08T02:38:45;46.25;;;25.92;;
20890;SDS011;10605;52.968;8.844;2024-03-08T02:41:11;44.75;;;25.45;;
20890;SDS011;10605;52.968;8.844;2024-03-08T02:43:37;46.05;;;25.80;;
20890;SDS011;10605;52.968;8.844;2024-03-08T02:46:03;47.15;;;25.48;;
20890;SDS011;10605;52.968;8.844;2024-03-08T02:48:30;44.60;;;24.67;;
20890;SDS011;10605;52.968;8.844;2024-03-08T02:50:55;44.22;;;25.48;;
20890;SDS011;10605;52.968;8.844;2024-03-08T02:53:21;49.10;;;25.92;;
20890;SDS011;10605;52.968;8.844;2024-03-08T02:55:47;45.92;;;26.33;;
20890;SDS011;10605;52.968;8.844;2024-03-08T02:58:13;43.10;;;24.95;;
20890;SDS011;10605;52.968;8.844;2024-03-08T03:00:39;50.17;;;25.48;;
20890;SDS011;10605;52.968;8.844;2024-03-08T03:03:06;42.78;;;25.52;;
20890;SDS011;10605;52.968;8.844;2024-03-08T03:05:32;49.33;;;26.05;;
20890;SDS011;10605;52.968;8.844;2024-03-08T03:07:59;45.30;;;25.52;;
20890;SDS011;10605;52.968;8.844;2024-03-08T03:10:24;45.05;;;26.38;;
20890;SDS011;10605;52.968;8.844;2024-03-08T03:12:50;47.17;;;26.58;;
20890;SDS011;10605;52.968;8.844;2024-03-08T03:15:17;48.17;;;26.90;;
20890;SDS011;10605;52.968;8.844;2024-03-08T03:17:49;47.92;;;26.17;;
20890;SDS011;10605;52.968;8.844;2024-03-08T03:20:16;51.22;;;27.23;;
20890;SDS011;10605;52.968;8.844;2024-03-08T03:22:48;48.03;;;27.88;;
20890;SDS011;10605;52.968;8.844;2024-03-08T03:25:17;47.58;;;28.40;;
20890;SDS011;10605;52.968;8.844;2024-03-08T03:27:48;51.67;;;27.58;;
20890;SDS011;10605;52.968;8.844;2024-03-08T03:30:14;48.45;;;27.13;;
20890;SDS011;10605;52.968;8.844;2024-03-08T03:32:47;50.00;;;27.73;;
20890;SDS011;10605;52.968;8.844;2024-03-08T03:35:13;45.72;;;26.25;;
20890;SDS011;10605;52.968;8.844;2024-03-08T03:37:42;44.88;;;26.13;;
20890;SDS011;10605;52.968;8.844;2024-03-08T03:40:10;49.53;;;26.90;;
20890;SDS011;10605;52.968;8.844;2024-03-08T03:42:38;48.55;;;26.27;;
20890;SDS011;10605;52.968;8.844;2024-03-08T03:45:05;48.30;;;27.23;;
20890;SDS011;10605;52.968;8.844;2024-03-08T03:47:31;54.05;;;27.20;;
20890;SDS011;10605;52.968;8.844;2024-03-08T03:49:56;49.38;;;26.25;;
20890;SDS011;10605;52.968;8.844;2024-03-08T03:52:26;53.90;;;26.60;;
20890;SDS011;10605;52.968;8.844;2024-03-08T03:54:52;46.72;;;26.83;;
20890;SDS011;10605;52.968;8.844;2024-03-08T03:57:18;49.40;;;27.63;;
20890;SDS011;10605;52.968;8.844;2024-03-08T03:59:48;52.22;;;28.02;;
20890;SDS011;10605;52.968;8.844;2024-03-08T04:02:13;55.75;;;27.08;;
20890;SDS011;10605;52.968;8.844;2024-03-08T04:04:39;56.03;;;27.83;;
20890;SDS011;10605;52.968;8.844;2024-03-08T04:07:05;56.42;;;29.00;;
20890;SDS011;10605;52.968;8.844;2024-03-08T04:09:31;55.42;;;27.65;;
20890;SDS011;10605;52.968;8.844;2024-03-08T04:11:57;53.10;;;28.65;;
20890;SDS011;10605;52.968;8.844;2024-03-08T04:14:23;53.55;;;28.98;;
20890;SDS011;10605;52.968;8.844;2024-03-08T04:16:49;53.00;;;27.67;;
20890;SDS011;10605;52.968;8.844;2024-03-08T04:19:14;54.17;;;28.33;;
20890;SDS011;10605;52.968;8.844;2024-03-08T04:21:40;59.63;;;29.02;;
20890;SDS011;10605;52.968;8.844;2024-03-08T04:24:07;56.60;;;28.67;;
20890;SDS011;10605;52.968;8.844;2024-03-08T04:26:34;52.70;;;26.65;;
20890;SDS011;10605;52.968;8.844;2024-03-08T04:28:59;51.72;;;27.83;;
20890;SDS011;10605;52.968;8.844;2024-03-08T04:31:25;46.47;;;26.83;;
20890;SDS011;10605;52.968;8.844;2024-03-08T04:33:51;55.10;;;29.25;;
20890;SDS011;10605;52.968;8.844;2024-03-08T04:36:18;54.65;;;28.60;;
20890;SDS011;10605;52.968;8.844;2024-03-08T04:38:44;49.33;;;27.70;;
20890;SDS011;10605;52.968;8.844;2024-03-08T04:41:10;50.88;;;27.95;;
20890;SDS011;10605;52.968;8.844;2024-03-08T04:43:36;54.25;;;28.80;;
20890;SDS011;10605;52.968;8.844;2024-03-08T04:46:02;52.85;;;29.17;;
20890;SDS011;10605;52.968;8.844;2024-03-08T04:48:28;55.47;;;28.98;;
20890;SDS011;10605;52.968;8.844;2024-03-08T04:50:54;54.65;;;29.50;;
20890;SDS011;10605;52.968;8.844;2024-03-08T04:53:20;52.85;;;28.15;;
20890;SDS011;10605;52.968;8.844;2024-03-08T04:55:46;56.63;;;29.58;;
20890;SDS011;10605;52.968;8.844;2024-03-08T04:58:12;60.45;;;30.25;;
20890;SDS011;10605;52.968;8.844;2024-03-08T05:00:37;56.28;;;29.50;;
20890;SDS011;10605;52.968;8.844;2024-03-08T05:03:03;63.38;;;31.70;;
20890;SDS011;10605;52.968;8.844;2024-03-08T05:05:29;57.35;;;30.17;;
20890;SDS011;10605;52.968;8.844;2024-03-08T05:07:56;53.53;;;30.23;;
20890;SDS011;10605;52.968;8.844;2024-03-08T05:10:21;59.72;;;30.35;;
20890;SDS011;10605;52.968;8.844;2024-03-08T05:12:47;61.50;;;31.20;;
20890;SDS011;10605;52.968;8.844;2024-03-08T05:15:13;60.00;;;31.17;;
20890;SDS011;10605;52.968;8.844;2024-03-08T05:17:39;61.42;;;30.88;;
20890;SDS011;10605;52.968;8.844;2024-03-08T05:20:05;61.42;;;31.00;;
20890;SDS011;10605;52.968;8.844;2024-03-08T05:22:33;60.10;;;30.67;;
20890;SDS011;10605;52.968;8.844;2024-03-08T05:24:59;55.35;;;28.95;;
20890;SDS011;10605;52.968;8.844;2024-03-08T05:27:25;60.55;;;31.05;;
20890;SDS011;10605;52.968;8.844;2024-03-08T05:29:51;63.75;;;32.72;;
20890;SDS011;10605;52.968;8.844;2024-03-08T05:32:17;60.55;;;31.85;;
20890;SDS011;10605;52.968;8.844;2024-03-08T05:34:43;62.15;;;31.55;;
20890;SDS011;10605;52.968;8.844;2024-03-08T05:37:09;56.70;;;31.77;;
20890;SDS011;10605;52.968;8.844;2024-03-08T05:39:36;67.70;;;33.50;;
20890;SDS011;10605;52.968;8.844;2024-03-08T05:42:01;61.97;;;31.70;;
20890;SDS011;10605;52.968;8.844;2024-03-08T05:44:27;60.17;;;32.72;;
20890;SDS011;10605;52.968;8.844;2024-03-08T05:46:56;65.53;;;33.00;;
20890;SDS011;10605;52.968;8.844;2024-03-08T05:49:21;65.15;;;30.83;;
20890;SDS011;10605;52.968;8.844;2024-03-08T05:51:47;59.72;;;32.35;;
20890;SDS011;10605;52.968;8.844;2024-03-08T05:54:13;60.63;;;33.90;;
20890;SDS011;10605;52.968;8.844;2024-03-08T05:56:39;68.63;;;32.70;;
20890;SDS011;10605;52.968;8.844;2024-03-08T05:59:09;69.28;;;33.90;;
20890;SDS011;10605;52.968;8.844;2024-03-08T06:01:35;66.53;;;33.25;;
20890;SDS011;10605;52.968;8.844;2024-03-08T06:04:02;64.72;;;34.35;;
20890;SDS011;10605;52.968;8.844;2024-03-08T06:06:28;64.00;;;33.42;;
20890;SDS011;10605;52.968;8.844;2024-03-08T06:08:54;71.55;;;35.88;;
20890;SDS011;10605;52.968;8.844;2024-03-08T06:11:21;65.95;;;34.00;;
20890;SDS011;10605;52.968;8.844;2024-03-08T06:13:47;65.65;;;33.58;;
20890;SDS011;10605;52.968;8.844;2024-03-08T06:16:13;65.15;;;34.22;;
20890;SDS011;10605;52.968;8.844;2024-03-08T06:18:39;69.80;;;36.03;;
20890;SDS011;10605;52.968;8.844;2024-03-08T06:21:06;69.68;;;35.03;;
20890;SDS011;10605;52.968;8.844;2024-03-08T06:23:32;68.05;;;34.47;;
20890;SDS011;10605;52.968;8.844;2024-03-08T06:25:58;65.97;;;35.30;;
20890;SDS011;10605;52.968;8.844;2024-03-08T06:28:24;66.60;;;34.17;;
20890;SDS011;10605;52.968;8.844;2024-03-08T06:30:50;65.75;;;34.97;;
20890;SDS011;10605;52.968;8.844;2024-03-08T06:33:16;64.82;;;33.20;;
20890;SDS011;10605;52.968;8.844;2024-03-08T06:35:43;68.25;;;34.30;;
20890;SDS011;10605;52.968;8.844;2024-03-08T06:38:08;66.90;;;34.22;;
20890;SDS011;10605;52.968;8.844;2024-03-08T06:40:34;63.08;;;32.65;;
20890;SDS011;10605;52.968;8.844;2024-03-08T06:43:00;61.97;;;34.53;;
20890;SDS011;10605;52.968;8.844;2024-03-08T06:45:25;60.00;;;31.45;;
20890;SDS011;10605;52.968;8.844;2024-03-08T06:47:51;50.85;;;30.95;;
20890;SDS011;10605;52.968;8.844;2024-03-08T06:50:17;58.75;;;32.28;;
20890;SDS011;10605;52.968;8.844;2024-03-08T06:52:43;57.10;;;31.05;;
20890;SDS011;10605;52.968;8.844;2024-03-08T06:55:09;48.30;;;30.13;;
20890;SDS011;10605;52.968;8.844;2024-03-08T06:57:40;55.08;;;31.17;;
20890;SDS011;10605;52.968;8.844;2024-03-08T07:00:07;48.92;;;28.60;;
20890;SDS011;10605;52.968;8.844;2024-03-08T07:02:43;47.20;;;29.02;;
20890;SDS011;10605;52.968;8.844;2024-03-08T07:05:14;48.15;;;28.20;;
20890;SDS011;10605;52.968;8.844;2024-03-08T07:07:41;46.78;;;27.92;;
20890;SDS011;10605;52.968;8.844;2024-03-08T07:10:07;43.95;;;27.70;;
20890;SDS011;10605;52.968;8.844;2024-03-08T07:12:36;47.20;;;28.17;;
20890;SDS011;10605;52.968;8.844;2024-03-08T07:15:02;43.03;;;25.42;;
20890;SDS011;10605;52.968;8.844;2024-03-08T07:17:30;46.35;;;27.80;;
20890;SDS011;10605;52.968;8.844;2024-03-08T07:19:59;45.67;;;25.70;;
20890;SDS011;10605;52.968;8.844;2024-03-08T07:22:32;42.85;;;26.17;;
20890;SDS011;10605;52.968;8.844;2024-03-08T07:24:58;41.78;;;25.63;;
20890;SDS011;10605;52.968;8.844;2024-03-08T07:27:45;44.60;;;26.10;;
20890;SDS011;10605;52.968;8.844;2024-03-08T07:30:11;44.80;;;26.52;;
20890;SDS011;10605;52.968;8.844;2024-03-08T07:32:37;42.55;;;26.23;;
20890;SDS011;10605;52.968;8.844;2024-03-08T07:35:03;41.83;;;25.23;;
20890;SDS011;10605;52.968;8.844;2024-03-08T07:37:29;41.58;;;25.73;;
20890;SDS011;10605;52.968;8.844;2024-03-08T07:39:55;38.97;;;25.48;;
20890;SDS011;10605;52.968;8.844;2024-03-08T07:42:21;38.30;;;25.77;;
20890;SDS011;10605;52.968;8.844;2024-03-08T07:44:47;41.28;;;26.50;;
20890;SDS011;10605;52.968;8.844;2024-03-08T07:47:15;40.78;;;25.00;;
20890;SDS011;10605;52.968;8.844;2024-03-08T07:49:42;36.95;;;24.80;;
20890;SDS011;10605;52.968;8.844;2024-03-08T07:52:09;39.33;;;25.23;;
20890;SDS011;10605;52.968;8.844;2024-03-08T07:54:40;41.13;;;24.55;;
20890;SDS011;10605;52.968;8.844;2024-03-08T07:57:06;38.75;;;25.10;;
20890;SDS011;10605;52.968;8.844;2024-03-08T07:59:32;40.78;;;23.95;;
20890;SDS011;10605;52.968;8.844;2024-03-08T08:01:58;42.42;;;24.77;;
20890;SDS011;10605;52.968;8.844;2024-03-08T08:04:24;38.53;;;24.02;;
20890;SDS011;10605;52.968;8.844;2024-03-08T08:06:51;39.40;;;23.85;;
20890;SDS011;10605;52.968;8.844;2024-03-08T08:09:19;39.15;;;24.20;;
20890;SDS011;10605;52.968;8.844;2024-03-08T08:11:53;36.47;;;23.80;;
20890;SDS011;10605;52.968;8.844;2024-03-08T08:14:20;38.42;;;24.77;;
20890;SDS011;10605;52.968;8.844;2024-03-08T08:16:46;32.38;;;22.88;;
20890;SDS011;10605;52.968;8.844;2024-03-08T08:19:13;35.05;;;23.67;;
20890;SDS011;10605;52.968;8.844;2024-03-08T08:21:40;32.97;;;22.92;;
20890;SDS011;10605;52.968;8.844;2024-03-08T08:24:06;34.92;;;22.92;;
20890;SDS011;10605;52.968;8.844;2024-03-08T08:26:32;28.40;;;21.52;;
20890;SDS011;10605;52.968;8.844;2024-03-08T08:28:59;27.55;;;20.92;;
20890;SDS011;10605;52.968;8.844;2024-03-08T08:31:25;32.15;;;22.17;;
20890;SDS011;10605;52.968;8.844;2024-03-08T08:33:51;36.15;;;22.13;;
20890;SDS011;10605;52.968;8.844;2024-03-08T08:36:26;28.10;;;21.85;;
20890;SDS011;10605;52.968;8.844;2024-03-08T08:38:54;31.73;;;22.65;;
20890;SDS011;10605;52.968;8.844;2024-03-08T08:41:21;29.30;;;20.98;;
20890;SDS011;10605;52.968;8.844;2024-03-08T08:43:47;28.33;;;20.95;;
20890;SDS011;10605;52.968;8.844;2024-03-08T08:46:17;29.50;;;21.33;;
20890;SDS011;10605;52.968;8.844;2024-03-08T08:48:43;29.40;;;21.90;;
20890;SDS011;10605;52.968;8.844;2024-03-08T08:51:10;28.75;;;21.13;;
20890;SDS011;10605;52.968;8.844;2024-03-08T08:53:40;35.25;;;21.92;;
20890;SDS011;10605;52.968;8.844;2024-03-08T08:56:10;36.17;;;22.27;;
20890;SDS011;10605;52.968;8.844;2024-03-08T08:58:38;31.30;;;21.50;;
20890;SDS011;10605;52.968;8.844;2024-03-08T09:01:09;25.95;;;20.38;;
20890;SDS011;10605;52.968;8.844;2024-03-08T09:03:35;29.65;;;21.40;;
20890;SDS011;10605;52.968;8.844;2024-03-08T09:06:02;34.97;;;21.75;;
20890;SDS011;10605;52.968;8.844;2024-03-08T09:08:38;28.77;;;21.40;;
20890;SDS011;10605;52.968;8.844;2024-03-08T09:11:04;28.52;;;21.58;;
20890;SDS011;10605;52.968;8.844;2024-03-08T09:13:37;26.48;;;20.88;;
20890;SDS011;10605;52.968;8.844;2024-03-08T09:16:03;33.63;;;22.05;;
20890;SDS011;10605;52.968;8.844;2024-03-08T09:18:32;26.58;;;21.85;;
20890;SDS011;10605;52.968;8.844;2024-03-08T09:20:59;30.63;;;21.73;;
20890;SDS011;10605;52.968;8.844;2024-03-08T09:23:25;30.25;;;21.48;;
20890;SDS011;10605;52.968;8.844;2024-03-08T09:25:55;27.77;;;21.45;;
20890;SDS011;10605;52.968;8.844;2024-03-08T09:28:22;27.05;;;21.15;;
20890;SDS011;10605;52.968;8.844;2024-03-08T09:30:48;30.15;;;21.98;;
20890;SDS011;10605;52.968;8.844;2024-03-08T09:33:15;30.52;;;21.10;;
20890;SDS011;10605;52.968;8.844;2024-03-08T09:35:45;28.70;;;21.77;;
20890;SDS011;10605;52.968;8.844;2024-03-08T09:38:14;26.15;;;21.23;;
20890;SDS011;10605;52.968;8.844;2024-03-08T09:40:43;30.20;;;21.88;;
20890;SDS011;10605;52.968;8.844;2024-03-08T09:43:09;27.55;;;21.52;;
20890;SDS011;10605;52.968;8.844;2024-03-08T09:45:38;29.67;;;20.75;;
20890;SDS011;10605;52.968;8.844;2024-03-08T09:48:10;26.02;;;20.80;;
20890;SDS011;10605;52.968;8.844;2024-03-08T09:50:40;33.88;;;22.27;;
20890;SDS011;10605;52.968;8.844;2024-03-08T09:53:09;30.38;;;22.13;;
20890;SDS011;10605;52.968;8.844;2024-03-08T09:55:38;31.05;;;22.10;;
20890;SDS011;10605;52.968;8.844;2024-03-08T09:58:10;28.27;;;20.92;;
20890;SDS011;10605;52.968;8.844;2024-03-08T10:00:57;27.80;;;20.85;;
20890;SDS011;10605;52.968;8.844;2024-03-08T10:03:23;31.80;;;22.58;;
20890;SDS011;10605;52.968;8.844;2024-03-08T10:05:52;31.30;;;22.92;;
20890;SDS011;10605;52.968;8.844;2024-03-08T10:08:21;30.33;;;22.13;;
20890;SDS011;10605;52.968;8.844;2024-03-08T10:10:47;34.25;;;23.13;;
20890;SDS011;10605;52.968;8.844;2024-03-08T10:13:14;31.33;;;22.45;;
20890;SDS011;10605;52.968;8.844;2024-03-08T10:15:42;31.08;;;22.55;;
20890;SDS011;10605;52.968;8.844;2024-03-08T10:18:08;26.17;;;21.52;;
20890;SDS011;10605;52.968;8.844;2024-03-08T10:20:35;25.48;;;21.45;;
20890;SDS011;10605;52.968;8.844;2024-03-08T10:23:02;30.65;;;21.35;;
20890;SDS011;10605;52.968;8.844;2024-03-08T10:25:30;28.20;;;22.13;;
20890;SDS011;10605;52.968;8.844;2024-03-08T10:27:56;27.98;;;22.30;;
20890;SDS011;10605;52.968;8.844;2024-03-08T10:30:22;31.20;;;22.75;;
20890;SDS011;10605;52.968;8.844;2024-03-08T10:32:48;26.90;;;21.38;;
20890;SDS011;10605;52.968;8.844;2024-03-08T10:35:14;26.85;;;21.88;;
20890;SDS011;10605;52.968;8.844;2024-03-08T10:37:45;29.15;;;22.73;;
20890;SDS011;10605;52.968;8.844;2024-03-08T10:40:20;28.75;;;22.35;;
20890;SDS011;10605;52.968;8.844;2024-03-08T10:42:51;30.90;;;21.90;;
20890;SDS011;10605;52.968;8.844;2024-03-08T10:48:13;36.92;;;21.92;;
20890;SDS011;10605;52.968;8.844;2024-03-08T10:50:49;27.15;;;21.70;;
20890;SDS011;10605;52.968;8.844;2024-03-08T10:53:18;28.27;;;21.60;;
20890;SDS011;10605;52.968;8.844;2024-03-08T10:55:47;28.35;;;21.38;;
20890;SDS011;10605;52.968;8.844;2024-03-08T10:58:18;27.52;;;20.63;;
20890;SDS011;10605;52.968;8.844;2024-03-08T11:00:47;27.63;;;21.40;;
20890;SDS011;10605;52.968;8.844;2024-03-08T11:06:21;33.33;;;21.83;;
20890;SDS011;10605;52.968;8.844;2024-03-08T11:08:48;32.38;;;20.63;;
20890;SDS011;10605;52.968;8.844;2024-03-08T11:11:25;29.85;;;22.02;;
20890;SDS011;10605;52.968;8.844;2024-03-08T11:13:57;25.25;;;21.10;;
20890;SDS011;10605;52.968;8.844;2024-03-08T11:18:58;29.73;;;21.23;;
20890;SDS011;10605;52.968;8.844;2024-03-08T11:21:31;29.33;;;21.80;;
20890;SDS011;10605;52.968;8.844;2024-03-08T11:24:07;27.35;;;20.15;;
20890;SDS011;10605;52.968;8.844;2024-03-08T11:26:38;28.75;;;20.88;;
20890;SDS011;10605;52.968;8.844;2024-03-08T11:32:04;26.38;;;20.60;;
20890;SDS011;10605;52.968;8.844;2024-03-08T11:34:40;29.20;;;21.00;;
20890;SDS011;10605;52.968;8.844;2024-03-08T11:37:14;26.00;;;20.73;;
20890;SDS011;10605;52.968;8.844;2024-03-08T11:39:50;27.50;;;21.25;;
20890;SDS011;10605;52.968;8.844;2024-03-08T11:42:18;30.63;;;21.73;;
20890;SDS011;10605;52.968;8.844;2024-03-08T11:44:47;26.20;;;21.13;;
20890;SDS011;10605;52.968;8.844;2024-03-08T11:47:15;25.77;;;20.65;;
20890;SDS011;10605;52.968;8.844;2024-03-08T11:49:41;27.67;;;20.60;;
20890;SDS011;10605;52.968;8.844;2024-03-08T11:52:12;24.92;;;20.70;;
20890;SDS011;10605;52.968;8.844;2024-03-08T11:54:42;24.83;;;18.85;;
20890;SDS011;10605;52.968;8.844;2024-03-08T11:57:22;25.02;;;18.67;;
20890;SDS011;10605;52.968;8.844;2024-03-08T11:59:52;24.65;;;18.48;;
20890;SDS011;10605;52.968;8.844;2024-03-08T12:02:18;28.05;;;19.63;;
20890;SDS011;10605;52.968;8.844;2024-03-08T12:04:47;24.52;;;19.17;;
20890;SDS011;10605;52.968;8.844;2024-03-08T12:07:12;25.58;;;19.85;;
20890;SDS011;10605;52.968;8.844;2024-03-08T12:09:42;24.05;;;19.30;;
20890;SDS011;10605;52.968;8.844;2024-03-08T12:12:11;26.52;;;19.63;;
20890;SDS011;10605;52.968;8.844;2024-03-08T12:14:37;21.60;;;18.45;;
20890;SDS011;10605;52.968;8.844;2024-03-08T12:17:04;22.95;;;19.10;;
20890;SDS011;10605;52.968;8.844;2024-03-08T12:19:31;25.23;;;20.15;;
20890;SDS011;10605;52.968;8.844;2024-03-08T12:21:57;27.25;;;21.33;;
20890;SDS011;10605;52.968;8.844;2024-03-08T12:24:33;31.23;;;20.40;;
20890;SDS011;10605;52.968;8.844;2024-03-08T12:26:59;24.30;;;19.98;;
20890;SDS011;10605;52.968;8.844;2024-03-08T12:29:25;31.17;;;22.08;;
20890;SDS011;10605;52.968;8.844;2024-03-08T12:31:56;26.00;;;20.58;;
20890;SDS011;10605;52.968;8.844;2024-03-08T12:34:26;27.25;;;21.85;;
20890;SDS011;10605;52.968;8.844;2024-03-08T12:36:56;29.70;;;21.13;;
20890;SDS011;10605;52.968;8.844;2024-03-08T12:39:23;30.20;;;21.38;;
20890;SDS011;10605;52.968;8.844;2024-03-08T12:41:52;28.65;;;20.45;;
20890;SDS011;10605;52.968;8.844;2024-03-08T12:44:18;30.02;;;19.90;;
20890;SDS011;10605;52.968;8.844;2024-03-08T12:46:46;24.50;;;19.63;;
20890;SDS011;10605;52.968;8.844;2024-03-08T12:49:14;28.00;;;21.35;;
20890;SDS011;10605;52.968;8.844;2024-03-08T12:51:47;26.40;;;20.70;;
20890;SDS011;10605;52.968;8.844;2024-03-08T12:54:13;29.25;;;20.58;;
20890;SDS011;10605;52.968;8.844;2024-03-08T12:56:38;25.27;;;20.38;;
20890;SDS011;10605;52.968;8.844;2024-03-08T12:59:05;27.83;;;20.55;;
20890;SDS011;10605;52.968;8.844;2024-03-08T13:01:35;28.05;;;19.40;;
20890;SDS011;10605;52.968;8.844;2024-03-08T13:04:04;25.75;;;19.63;;
20890;SDS011;10605;52.968;8.844;2024-03-08T13:06:31;26.40;;;19.83;;
20890;SDS011;10605;52.968;8.844;2024-03-08T13:08:57;29.98;;;20.63;;
20890;SDS011;10605;52.968;8.844;2024-03-08T13:11:24;25.23;;;20.10;;
20890;SDS011;10605;52.968;8.844;2024-03-08T13:13:50;29.92;;;21.40;;
20890;SDS011;10605;52.968;8.844;2024-03-08T13:16:17;27.63;;;20.15;;
20890;SDS011;10605;52.968;8.844;2024-03-08T13:18:44;27.80;;;21.65;;
20890;SDS011;10605;52.968;8.844;2024-03-08T13:21:10;30.40;;;21.92;;
20890;SDS011;10605;52.968;8.844;2024-03-08T13:23:39;28.77;;;21.30;;
20890;SDS011;10605;52.968;8.844;2024-03-08T13:26:06;33.20;;;22.75;;
20890;SDS011;10605;52.968;8.844;2024-03-08T13:28:33;32.20;;;22.77;;
20890;SDS011;10605;52.968;8.844;2024-03-08T13:31:04;32.67;;;22.92;;
20890;SDS011;10605;52.968;8.844;2024-03-08T13:33:31;32.80;;;22.27;;
20890;SDS011;10605;52.968;8.844;2024-03-08T13:36:00;31.88;;;22.63;;
20890;SDS011;10605;52.968;8.844;2024-03-08T13:38:28;36.03;;;23.40;;
20890;SDS011;10605;52.968;8.844;2024-03-08T13:40:54;33.90;;;23.92;;
20890;SDS011;10605;52.968;8.844;2024-03-08T13:43:19;34.63;;;23.88;;
20890;SDS011;10605;52.968;8.844;2024-03-08T13:45:45;37.65;;;23.65;;
20890;SDS011;10605;52.968;8.844;2024-03-08T13:48:11;32.30;;;22.95;;
20890;SDS011;10605;52.968;8.844;2024-03-08T13:50:38;34.13;;;23.23;;
20890;SDS011;10605;52.968;8.844;2024-03-08T13:53:04;33.00;;;22.63;;
20890;SDS011;10605;52.968;8.844;2024-03-08T13:55:30;35.38;;;22.30;;
20890;SDS011;10605;52.968;8.844;2024-03-08T13:57:56;36.08;;;22.63;;
20890;SDS011;10605;52.968;8.844;2024-03-08T14:00:25;32.55;;;22.90;;
20890;SDS011;10605;52.968;8.844;2024-03-08T14:02:53;31.30;;;22.45;;
20890;SDS011;10605;52.968;8.844;2024-03-08T14:05:21;31.70;;;23.25;;
20890;SDS011;10605;52.968;8.844;2024-03-08T14:07:47;33.00;;;23.00;;
20890;SDS011;10605;52.968;8.844;2024-03-08T14:10:14;29.85;;;21.25;;
20890;SDS011;10605;52.968;8.844;2024-03-08T14:12:40;33.22;;;23.15;;
20890;SDS011;10605;52.968;8.844;2024-03-08T14:15:08;33.97;;;21.25;;
20890;SDS011;10605;52.968;8.844;2024-03-08T14:17:34;31.30;;;21.48;;
20890;SDS011;10605;52.968;8.844;2024-03-08T14:20:01;27.98;;;22.00;;
20890;SDS011;10605;52.968;8.844;2024-03-08T14:22:26;28.65;;;20.85;;
20890;SDS011;10605;52.968;8.844;2024-03-08T14:24:52;29.17;;;20.13;;
20890;SDS011;10605;52.968;8.844;2024-03-08T14:27:20;38.03;;;22.08;;
20890;SDS011;10605;52.968;8.844;2024-03-08T14:29:47;29.88;;;22.77;;
20890;SDS011;10605;52.968;8.844;2024-03-08T14:32:13;35.10;;;22.55;;